Time;durP1;ratioP1;P1;durP2;ratioP2;P2;SDS_P1;SDS_P2;PMS_P1;PMS_P2;Temp;Humidity;BMP_temperature;BMP_pressure;BME280_temperature;BME280_humidity;BME280_pressure;Samples;Min_cycle;Max_cycle;Signal;HPM_P1;HPM_P2
2021/11/10 00:01:27;;;;;;;43.70;27.20;;;4.40;99.90;;;;;;5033205;28;20274;-71
2021/11/10 00:03:53;;;;;;;46.33;30.27;;;4.30;99.90;;;;;;5033305;28;20277;-72
2021/11/10 00:06:19;;;;;;;59.63;30.90;;;4.30;99.90;;;;;;5032898;28;20194;-69
2021/11/10 00:08:45;;;;;;;51.43;28.30;;;4.30;99.90;;;;;;5033006;28;20561;-71
2021/11/10 00:11:12;;;;;;;52.50;28.10;;;4.20;99.90;;;;;;5033028;28;20462;-71
2021/11/10 00:13:39;;;;;;;55.72;29.90;;;4.20;99.90;;;;;;5033052;28;20550;-71
2021/11/10 00:16:10;;;;;;;62.67;30.73;;;4.20;99.90;;;;;;5032924;28;20210;-72
2021/11/10 00:18:37;;;;;;;58.33;33.50;;;4.20;99.90;;;;;;5032753;28;20730;-71
2021/11/10 00:21:04;;;;;;;80.82;38.22;;;4.10;99.90;;;;;;5032483;28;20293;-72
2021/11/10 00:23:30;;;;;;;116.57;47.78;;;4.10;99.90;;;;;;5032467;28;20220;-72
2021/11/10 00:25:56;;;;;;;151.95;56.17;;;4.10;99.90;;;;;;5032742;28;20245;-71
2021/11/10 00:28:22;;;;;;;164.48;61.35;;;4.10;99.90;;;;;;5032399;28;20222;-71
2021/11/10 00:30:49;;;;;;;120.85;48.67;;;4.00;99.90;;;;;;5032714;28;20580;-72
2021/11/10 00:33:18;;;;;;;114.18;44.00;;;4.00;99.90;;;;;;5032783;28;20273;-71
2021/11/10 00:35:47;;;;;;;105.40;45.45;;;4.00;99.90;;;;;;5032588;28;20214;-70
2021/11/10 00:38:13;;;;;;;85.82;39.13;;;4.00;99.90;;;;;;5032272;28;20683;-72
2021/11/10 00:40:40;;;;;;;73.47;40.55;;;4.00;99.90;;;;;;5032536;28;20212;-71
2021/11/10 00:43:06;;;;;;;61.83;37.25;;;3.90;99.90;;;;;;5032108;28;20185;-70
2021/11/10 00:45:34;;;;;;;56.90;34.03;;;3.90;99.90;;;;;;5033190;28;20203;-72
2021/11/10 00:48:01;;;;;;;68.43;37.65;;;3.90;99.90;;;;;;5032400;28;20265;-71
2021/11/10 00:50:28;;;;;;;82.15;39.63;;;3.90;99.90;;;;;;5032304;28;20210;-70
2021/11/10 00:52:54;;;;;;;66.25;38.35;;;3.90;99.90;;;;;;5032726;28;20175;-70
2021/11/10 00:55:22;;;;;;;60.35;37.03;;;3.90;99.90;;;;;;5032282;28;20544;-71
2021/11/10 00:57:50;;;;;;;66.47;33.97;;;3.80;99.90;;;;;;5032268;28;20562;-70
2021/11/10 01:00:18;;;;;;;78.85;35.58;;;3.80;99.90;;;;;;5031947;28;20218;-70
2021/11/10 01:02:48;;;;;;;70.40;40.80;;;3.90;99.90;;;;;;5032484;28;20175;-71
2021/11/10 01:05:14;;;;;;;75.28;36.40;;;3.80;99.90;;;;;;5032298;28;20202;-71
2021/11/10 01:07:45;;;;;;;66.82;36.35;;;3.80;99.90;;;;;;5032355;28;20179;-71
2021/11/10 01:10:12;;;;;;;69.45;38.78;;;3.80;99.90;;;;;;5031957;28;20213;-71
2021/11/10 01:12:38;;;;;;;59.95;35.13;;;3.80;99.90;;;;;;5032508;28;20185;-69
2021/11/10 01:15:08;;;;;;;62.35;32.80;;;3.80;99.90;;;;;;5031997;28;20298;-72
2021/11/10 01:17:34;;;;;;;51.40;33.70;;;3.80;99.90;;;;;;5032436;28;20221;-72
2021/11/10 01:20:00;;;;;;;57.42;34.22;;;3.70;99.90;;;;;;5032060;28;20226;-72
2021/11/10 01:22:26;;;;;;;49.37;31.90;;;3.70;99.90;;;;;;5032489;28;20182;-72
2021/11/10 01:24:52;;;;;;;44.55;30.30;;;3.60;99.90;;;;;;5032060;28;20442;-71
2021/11/10 01:27:19;;;;;;;48.17;28.55;;;3.50;99.90;;;;;;5031933;28;20230;-72
2021/11/10 01:29:46;;;;;;;49.28;29.20;;;3.50;99.90;;;;;;5032090;28;20202;-72
2021/11/10 01:32:14;;;;;;;54.83;32.50;;;3.40;99.90;;;;;;5032010;28;20197;-70
2021/11/10 01:34:40;;;;;;;56.08;33.97;;;3.30;99.90;;;;;;5032168;28;20201;-69
2021/11/10 01:37:06;;;;;;;60.00;35.42;;;3.20;99.90;;;;;;5032106;28;20182;-72
2021/11/10 01:39:33;;;;;;;55.15;36.13;;;3.20;99.90;;;;;;5031955;28;20222;-71
2021/11/10 01:42:05;;;;;;;71.50;41.10;;;3.20;99.90;;;;;;5032168;28;20187;-71
2021/11/10 01:44:34;;;;;;;61.10;39.22;;;3.10;99.90;;;;;;5032125;28;20668;-72
2021/11/10 01:47:05;;;;;;;70.15;38.50;;;3.10;99.90;;;;;;5032239;28;20183;-71
2021/11/10 01:49:31;;;;;;;92.55;42.25;;;3.10;99.90;;;;;;5031928;28;20667;-72
2021/11/10 01:51:58;;;;;;;89.38;39.67;;;3.10;99.90;;;;;;5031746;28;20194;-70
2021/11/10 01:54:29;;;;;;;86.22;42.40;;;3.10;99.90;;;;;;5031958;28;20289;-71
2021/11/10 01:56:56;;;;;;;91.00;41.55;;;3.10;99.90;;;;;;5032606;28;20213;-70
2021/11/10 01:59:40;;;;;;;71.03;34.30;;;3.10;99.90;;;;;;5035446;28;20767;-71
2021/11/10 02:02:19;;;;;;;54.22;33.45;;;3.10;99.90;;;;;;5035346;28;20191;-71
2021/11/10 02:04:47;;;;;;;55.13;32.63;;;3.10;99.90;;;;;;5035317;28;20212;-71
2021/11/10 02:07:14;;;;;;;60.65;32.25;;;3.10;99.90;;;;;;5035290;28;20715;-71
2021/11/10 02:09:43;;;;;;;51.30;32.30;;;3.00;99.90;;;;;;5035013;28;20209;-71
2021/11/10 02:12:09;;;;;;;53.42;32.92;;;3.10;99.90;;;;;;5035256;28;20224;-70
2021/11/10 02:14:37;;;;;;;55.92;34.38;;;3.10;99.90;;;;;;5035000;28;20206;-70
2021/11/10 02:17:04;;;;;;;65.72;34.63;;;3.20;99.90;;;;;;5035040;28;20210;-71
2021/11/10 02:19:30;;;;;;;54.90;32.15;;;3.20;99.90;;;;;;5035396;28;20265;-72
2021/11/10 02:21:57;;;;;;;52.45;33.55;;;3.20;99.90;;;;;;5035360;28;20178;-72
2021/11/10 02:24:26;;;;;;;50.28;33.30;;;3.20;99.90;;;;;;5035213;28;20659;-71
2021/11/10 02:26:55;;;;;;;62.20;35.58;;;3.20;99.90;;;;;;5034756;28;20242;-72
2021/11/10 02:29:24;;;;;;;51.90;31.80;;;3.30;99.90;;;;;;5034770;28;20264;-72
2021/11/10 02:31:52;;;;;;;69.75;34.50;;;3.30;99.90;;;;;;5034619;28;20554;-71
2021/11/10 02:34:19;;;;;;;70.00;34.67;;;3.30;99.90;;;;;;5034899;28;20195;-71
2021/11/10 02:36:46;;;;;;;60.13;33.95;;;3.40;99.90;;;;;;5035232;28;20186;-72
2021/11/10 02:39:19;;;;;;;66.50;34.03;;;3.40;99.90;;;;;;5034507;28;20267;-72
2021/11/10 02:41:48;;;;;;;66.70;34.38;;;3.40;99.90;;;;;;5034960;28;20174;-70
2021/11/10 02:44:18;;;;;;;107.97;42.83;;;3.50;99.90;;;;;;5034590;28;20202;-70
2021/11/10 02:46:47;;;;;;;86.95;36.70;;;3.50;99.90;;;;;;5034892;28;20249;-71
2021/11/10 02:49:14;;;;;;;75.30;39.45;;;3.60;99.90;;;;;;5034458;28;20211;-72
2021/11/10 02:52:03;;;;;;;74.95;39.35;;;3.60;99.90;;;;;;5034511;28;20182;-69
2021/11/10 02:54:33;;;;;;;74.82;37.53;;;3.70;99.90;;;;;;5034468;28;20221;-72
2021/11/10 02:57:04;;;;;;;72.35;37.58;;;3.70;99.90;;;;;;5034665;28;20182;-71
2021/11/10 02:59:30;;;;;;;77.80;37.38;;;3.70;99.90;;;;;;5034486;28;20230;-71
2021/11/10 03:01:58;;;;;;;66.60;35.03;;;3.80;99.90;;;;;;5034738;28;20183;-71
2021/11/10 03:04:55;;;;;;;67.50;36.80;;;3.80;99.90;;;;;;5034245;28;20202;-72
2021/11/10 03:07:22;;;;;;;65.43;36.33;;;3.90;99.90;;;;;;5031563;28;20289;-72
2021/11/10 03:09:48;;;;;;;72.68;38.67;;;3.90;99.90;;;;;;5033904;28;20276;-71
2021/11/10 03:12:15;;;;;;;74.07;35.97;;;3.90;99.90;;;;;;5034258;28;20183;-70
2021/11/10 03:14:43;;;;;;;67.63;38.03;;;4.00;99.90;;;;;;5033940;28;20198;-70
2021/11/10 03:17:12;;;;;;;74.53;37.08;;;4.00;99.90;;;;;;5034327;28;20276;-72
2021/11/10 03:19:38;;;;;;;73.32;35.78;;;4.10;99.90;;;;;;5035119;28;20238;-72
2021/11/10 03:22:07;;;;;;;64.88;36.83;;;4.10;99.90;;;;;;5034034;28;20186;-71
2021/11/10 03:24:34;;;;;;;73.53;36.53;;;4.20;99.90;;;;;;5033926;28;20225;-72
2021/11/10 03:27:01;;;;;;;57.60;32.88;;;4.20;99.90;;;;;;5033566;28;20230;-71
2021/11/10 03:29:27;;;;;;;72.70;35.22;;;4.20;99.90;;;;;;5033763;28;20237;-72
2021/11/10 03:31:58;;;;;;;77.18;36.83;;;4.30;99.90;;;;;;5033896;28;20266;-73
2021/11/10 03:34:28;;;;;;;63.83;35.95;;;4.40;99.90;;;;;;5033757;28;20561;-72
2021/11/10 03:36:55;;;;;;;69.70;33.35;;;4.40;99.90;;;;;;5033720;28;20652;-72
2021/11/10 03:39:23;;;;;;;69.97;29.95;;;4.40;99.90;;;;;;5033758;28;20241;-72
2021/11/10 03:41:50;;;;;;;66.82;32.17;;;4.50;99.90;;;;;;5033518;28;20256;-72
2021/11/10 03:44:16;;;;;;;59.53;33.40;;;4.50;99.90;;;;;;5033651;28;20251;-70
2021/11/10 03:46:45;;;;;;;59.55;28.92;;;4.50;99.90;;;;;;5033808;28;20189;-71
2021/11/10 03:49:13;;;;;;;59.05;30.02;;;4.50;99.90;;;;;;5033331;28;20175;-71
2021/11/10 03:51:42;;;;;;;74.75;30.30;;;4.60;99.90;;;;;;5035058;28;20232;-72
2021/11/10 03:54:10;;;;;;;53.83;31.20;;;4.60;99.90;;;;;;5033475;28;20214;-72
2021/11/10 03:56:37;;;;;;;58.83;29.92;;;4.70;99.90;;;;;;5033555;28;20183;-71
2021/11/10 03:59:03;;;;;;;53.58;30.23;;;4.70;99.90;;;;;;5033017;28;20212;-71
2021/11/10 04:01:30;;;;;;;62.25;29.00;;;4.70;99.90;;;;;;5033292;28;20706;-72
2021/11/10 04:03:57;;;;;;;49.70;27.90;;;4.80;99.90;;;;;;5033369;28;20182;-72
2021/11/10 04:06:25;;;;;;;53.65;26.55;;;4.80;99.90;;;;;;5033247;28;20182;-70
2021/11/10 04:08:51;;;;;;;50.58;27.60;;;4.80;99.90;;;;;;5033035;28;20171;-71
2021/11/10 04:11:20;;;;;;;47.42;25.95;;;4.80;99.90;;;;;;5033306;28;20591;-70
2021/11/10 04:13:47;;;;;;;45.83;26.33;;;4.80;99.90;;;;;;5033155;28;20182;-72
2021/11/10 04:16:13;;;;;;;47.35;26.77;;;4.80;99.90;;;;;;5032904;28;20210;-71
2021/11/10 04:18:45;;;;;;;52.42;27.95;;;4.90;99.90;;;;;;5033528;28;20575;-70
2021/11/10 04:21:12;;;;;;;58.13;28.25;;;4.90;99.90;;;;;;5032220;28;20230;-72
2021/11/10 04:23:38;;;;;;;55.08;29.98;;;4.90;99.90;;;;;;5032878;28;20178;-72
2021/11/10 04:26:05;;;;;;;57.63;30.50;;;4.90;99.90;;;;;;5032313;28;20218;-71
2021/11/10 04:28:31;;;;;;;57.22;30.23;;;4.90;99.90;;;;;;5032761;28;20726;-72
2021/11/10 04:30:58;;;;;;;67.47;32.35;;;5.00;99.90;;;;;;5032672;28;20213;-72
2021/11/10 04:33:24;;;;;;;68.45;30.63;;;5.00;99.90;;;;;;5032557;28;20184;-71
2021/11/10 04:35:54;;;;;;;56.35;32.78;;;5.00;99.90;;;;;;5032441;28;20625;-71
2021/11/10 04:38:21;;;;;;;60.45;34.00;;;5.00;99.90;;;;;;5032247;28;20698;-71
2021/11/10 04:40:52;;;;;;;64.45;30.17;;;5.10;99.90;;;;;;5031521;28;20237;-71
2021/11/10 04:43:19;;;;;;;55.83;28.77;;;5.10;99.90;;;;;;5032192;28;20183;-72
2021/11/10 04:45:52;;;;;;;53.97;26.20;;;5.20;99.90;;;;;;5031947;28;20210;-71
2021/11/10 04:48:19;;;;;;;49.58;23.50;;;5.20;99.90;;;;;;5032540;28;20159;-71
2021/11/10 04:50:47;;;;;;;44.22;24.50;;;5.30;99.90;;;;;;5032101;28;20569;-70
2021/11/10 04:53:13;;;;;;;47.17;23.70;;;5.30;99.90;;;;;;5032431;28;20174;-70
2021/11/10 04:55:41;;;;;;;46.45;24.75;;;5.30;99.90;;;;;;5032703;28;20238;-73
2021/11/10 04:58:07;;;;;;;63.00;24.42;;;5.20;99.90;;;;;;5032016;28;20206;-71
2021/11/10 05:00:33;;;;;;;50.42;24.55;;;5.30;99.90;;;;;;5032305;28;20751;-71
2021/11/10 05:02:59;;;;;;;54.83;25.70;;;5.30;99.90;;;;;;5032237;28;20269;-72
2021/11/10 05:05:26;;;;;;;62.72;27.90;;;5.30;99.90;;;;;;5031979;28;20272;-70
2021/11/10 05:07:53;;;;;;;46.80;22.95;;;5.30;99.90;;;;;;5032479;28;20528;-70
2021/11/10 05:10:19;;;;;;;52.70;24.07;;;5.30;99.90;;;;;;5032006;28;20260;-69
2021/11/10 05:12:45;;;;;;;55.40;23.27;;;5.30;99.90;;;;;;5032483;28;20447;-70
2021/11/10 05:15:11;;;;;;;49.43;23.70;;;5.30;99.90;;;;;;5031907;28;20614;-70
2021/11/10 05:17:37;;;;;;;44.10;22.35;;;5.30;99.90;;;;;;5031985;28;20175;-71
2021/11/10 05:20:04;;;;;;;43.22;22.17;;;5.30;99.90;;;;;;5032161;28;20806;-72
2021/11/10 05:22:30;;;;;;;46.30;22.08;;;5.30;99.90;;;;;;5032130;28;20193;-71
2021/11/10 05:24:59;;;;;;;47.37;22.30;;;5.40;99.90;;;;;;5031997;28;20214;-72
2021/11/10 05:27:26;;;;;;;51.38;23.48;;;5.40;99.90;;;;;;5031308;28;20984;-72
2021/11/10 05:29:54;;;;;;;46.92;22.92;;;5.40;99.90;;;;;;5031280;28;20206;-72
2021/11/10 05:32:20;;;;;;;47.08;23.17;;;5.40;99.90;;;;;;5034769;28;20191;-72
2021/11/10 05:34:48;;;;;;;45.40;22.20;;;5.40;99.90;;;;;;5035258;28;20702;-71
2021/11/10 05:37:14;;;;;;;39.20;20.27;;;5.40;99.90;;;;;;5036141;28;20191;-72
2021/11/10 05:39:40;;;;;;;42.35;21.15;;;5.30;99.90;;;;;;5034975;28;20221;-70
2021/11/10 05:42:08;;;;;;;47.30;20.50;;;5.30;99.90;;;;;;5035079;28;20186;-71
2021/11/10 05:44:38;;;;;;;39.78;20.00;;;5.30;99.90;;;;;;5035419;28;20444;-72
2021/11/10 05:47:04;;;;;;;39.20;21.17;;;5.30;99.90;;;;;;5036500;28;20643;-72
2021/11/10 05:49:30;;;;;;;40.13;20.45;;;5.20;99.90;;;;;;5037482;28;20260;-70
2021/11/10 05:51:56;;;;;;;40.77;21.87;;;5.20;99.90;;;;;;5035013;28;20644;-71
2021/11/10 05:54:27;;;;;;;43.53;20.63;;;5.20;99.90;;;;;;5034268;28;20442;-71
2021/11/10 05:56:53;;;;;;;47.58;25.30;;;5.20;99.90;;;;;;5034011;28;20644;-71
2021/11/10 05:59:20;;;;;;;62.50;22.50;;;5.20;99.90;;;;;;5035707;28;20268;-71
2021/11/10 06:01:47;;;;;;;50.40;24.05;;;5.30;99.90;;;;;;5058197;28;20410;-71
2021/11/10 06:04:13;;;;;;;49.33;25.85;;;5.30;99.90;;;;;;5062634;28;20209;-70
2021/11/10 06:06:40;;;;;;;58.35;25.08;;;5.30;99.90;;;;;;5034196;28;20623;-71
2021/11/10 06:09:07;;;;;;;54.05;25.58;;;5.40;99.90;;;;;;5033848;28;20182;-70
2021/11/10 06:11:33;;;;;;;52.40;26.67;;;5.40;99.90;;;;;;5034133;28;20522;-71
2021/11/10 06:13:59;;;;;;;49.83;25.80;;;5.40;99.90;;;;;;5033976;28;20194;-71
2021/11/10 06:16:26;;;;;;;52.92;26.70;;;5.50;99.90;;;;;;5035043;28;20493;-71
2021/11/10 06:18:57;;;;;;;48.85;25.42;;;5.50;99.90;;;;;;5032458;28;20293;-70
2021/11/10 06:21:23;;;;;;;43.03;24.17;;;5.50;99.90;;;;;;5068090;28;20332;-71
2021/11/10 06:23:48;;;;;;;51.70;26.60;;;5.50;99.90;;;;;;5032786;28;20209;-74
2021/11/10 06:26:15;;;;;;;56.83;26.55;;;5.50;99.90;;;;;;5032954;28;20213;-71
2021/11/10 06:28:42;;;;;;;45.92;25.33;;;5.50;99.90;;;;;;5029331;28;20654;-72
2021/11/10 06:31:10;;;;;;;52.22;26.98;;;5.60;99.90;;;;;;5031225;28;20210;-72
2021/11/10 06:33:37;;;;;;;56.17;27.92;;;5.60;99.90;;;;;;5023217;28;20185;-72
2021/11/10 06:36:03;;;;;;;55.95;27.13;;;5.70;99.90;;;;;;5034523;28;20214;-71
2021/11/10 06:38:30;;;;;;;51.30;27.35;;;5.70;99.90;;;;;;5034034;28;20268;-71
2021/11/10 06:40:57;;;;;;;55.40;26.33;;;5.70;99.90;;;;;;5048992;28;20203;-72
2021/11/10 06:43:25;;;;;;;58.03;27.80;;;5.70;99.90;;;;;;5049066;28;20212;-71
2021/11/10 06:45:52;;;;;;;50.55;24.88;;;5.80;99.90;;;;;;5047298;28;20681;-71
2021/11/10 06:48:19;;;;;;;49.72;26.92;;;5.80;99.90;;;;;;5033644;28;20217;-70
2021/11/10 06:50:46;;;;;;;64.53;26.52;;;5.80;99.90;;;;;;5050691;28;20471;-73
2021/11/10 06:53:13;;;;;;;56.10;27.73;;;5.90;99.90;;;;;;5030659;28;20617;-71
2021/11/10 06:55:41;;;;;;;59.70;27.83;;;5.90;99.90;;;;;;5031573;28;20756;-71
2021/11/10 06:58:07;;;;;;;50.53;25.45;;;6.00;99.90;;;;;;5034124;28;20218;-72
2021/11/10 07:00:36;;;;;;;52.63;27.13;;;6.00;99.90;;;;;;5006116;28;20206;-72
2021/11/10 07:03:04;;;;;;;56.78;28.58;;;6.00;99.90;;;;;;5017865;28;20461;-70
2021/11/10 07:05:31;;;;;;;56.50;28.63;;;6.10;99.90;;;;;;5047433;28;20336;-71
2021/11/10 07:07:57;;;;;;;51.08;26.52;;;6.10;99.90;;;;;;5030759;28;20643;-71
2021/11/10 07:10:23;;;;;;;49.95;28.50;;;6.20;99.90;;;;;;5031189;28;20207;-71
2021/11/10 07:12:49;;;;;;;46.70;25.27;;;6.20;99.90;;;;;;5032088;28;20202;-72
2021/11/10 07:15:18;;;;;;;51.88;27.13;;;6.20;99.90;;;;;;5043797;28;20679;-72
2021/11/10 07:17:46;;;;;;;47.78;26.60;;;6.30;99.90;;;;;;5031997;28;20609;-72
2021/11/10 07:20:12;;;;;;;52.83;27.90;;;6.30;99.90;;;;;;5030000;28;20264;-72
2021/11/10 07:22:38;;;;;;;60.15;27.77;;;6.30;99.90;;;;;;5038923;28;20591;-71
2021/11/10 07:25:08;;;;;;;56.08;28.10;;;6.40;99.90;;;;;;5028208;28;20210;-71
2021/11/10 07:27:40;;;;;;;50.42;26.58;;;6.40;99.90;;;;;;5030416;28;20222;-71
2021/11/10 07:30:12;;;;;;;57.63;29.35;;;6.40;99.90;;;;;;5043324;28;20210;-72
2021/11/10 07:32:42;;;;;;;51.47;26.55;;;6.50;99.90;;;;;;5030542;28;20206;-71
2021/11/10 07:35:09;;;;;;;43.00;23.63;;;6.50;99.90;;;;;;5019996;28;20226;-71
2021/11/10 07:37:38;;;;;;;48.55;27.95;;;6.60;99.90;;;;;;5031355;28;20205;-72
2021/11/10 07:40:05;;;;;;;50.30;27.35;;;6.70;99.90;;;;;;5028434;28;20214;-73
2021/11/10 07:42:33;;;;;;;45.90;26.92;;;6.80;99.90;;;;;;5028354;28;20734;-70
2021/11/10 07:45:08;;;;;;;45.85;26.08;;;6.90;99.90;;;;;;5028202;28;20220;-72
2021/11/10 07:47:42;;;;;;;42.70;24.50;;;6.90;99.90;;;;;;5026199;28;20182;-74
2021/11/10 07:50:17;;;;;;;51.30;27.25;;;7.10;99.90;;;;;;5028895;28;20280;-72
2021/11/10 07:52:44;;;;;;;40.33;21.88;;;7.30;99.90;;;;;;5030755;28;20188;-73
2021/11/10 07:55:15;;;;;;;35.38;22.50;;;7.80;99.90;;;;;;5027775;28;20547;-71
2021/11/10 07:57:44;;;;;;;35.88;23.42;;;8.20;99.90;;;;;;5013884;28;20197;-70
2021/11/10 08:00:25;;;;;;;26.23;17.98;;;9.00;99.90;;;;;;5060936;28;20275;-72
2021/11/10 08:02:51;;;;;;;27.13;19.13;;;10.00;99.90;;;;;;5029477;28;20519;-72
2021/11/10 08:05:19;;;;;;;29.13;17.42;;;10.70;99.90;;;;;;5024787;28;20213;-73
2021/11/10 08:07:45;;;;;;;27.52;19.58;;;10.90;99.90;;;;;;5028251;28;20171;-71
2021/11/10 08:10:15;;;;;;;22.10;16.67;;;11.10;99.90;;;;;;5029686;28;20237;-74
2021/11/10 08:12:42;;;;;;;28.23;17.05;;;11.60;99.90;;;;;;5027103;28;20179;-71
2021/11/10 08:15:11;;;;;;;25.00;15.88;;;12.30;99.90;;;;;;5028788;28;20230;-72
2021/11/10 08:17:40;;;;;;;20.63;15.40;;;12.90;99.90;;;;;;5027070;28;20174;-72
2021/11/10 08:20:08;;;;;;;23.30;16.35;;;13.30;99.90;;;;;;5027253;28;20225;-73
2021/11/10 08:22:38;;;;;;;24.65;17.20;;;13.20;99.90;;;;;;5026961;28;20295;-73
2021/11/10 08:25:08;;;;;;;22.52;16.52;;;13.10;99.90;;;;;;5019986;28;20209;-71
2021/11/10 08:27:35;;;;;;;17.75;14.63;;;13.10;99.90;;;;;;5026339;28;20218;-70
2021/11/10 08:30:11;;;;;;;18.25;15.07;;;13.30;99.90;;;;;;5028299;28;20496;-73
2021/11/10 08:32:37;;;;;;;20.17;15.23;;;13.50;99.90;;;;;;5027907;28;20178;-71
2021/11/10 08:35:05;;;;;;;22.15;15.73;;;13.60;99.90;;;;;;5026121;28;20214;-73
2021/11/10 08:37:32;;;;;;;20.35;16.85;;;13.90;99.90;;;;;;5027591;28;20187;-70
2021/11/10 08:39:59;;;;;;;19.83;15.60;;;13.80;99.90;;;;;;5023663;28;20223;-67
2021/11/10 08:42:32;;;;;;;19.33;16.13;;;13.50;99.90;;;;;;5004631;28;20431;-70
2021/11/10 08:44:59;;;;;;;21.95;16.98;;;13.20;99.90;;;;;;5025871;28;20704;-69
2021/11/10 08:47:35;;;;;;;21.80;15.95;;;12.80;99.90;;;;;;5010193;28;20429;-73
2021/11/10 08:50:07;;;;;;;20.73;15.30;;;12.50;99.90;;;;;;5027761;28;20214;-71
2021/11/10 08:52:35;;;;;;;22.85;17.17;;;12.40;99.90;;;;;;5028686;28;20174;-73
2021/11/10 08:55:03;;;;;;;21.55;15.88;;;12.30;99.90;;;;;;5028981;28;20268;-71
2021/11/10 08:57:31;;;;;;;21.35;15.15;;;12.30;99.90;;;;;;5024112;28;20721;-73
2021/11/10 09:00:01;;;;;;;16.92;14.25;;;12.30;99.90;;;;;;5021869;28;20254;-70
2021/11/10 09:02:28;;;;;;;14.83;12.17;;;12.50;99.90;;;;;;5025630;28;20202;-72
2021/11/10 09:04:54;;;;;;;15.95;13.60;;;12.80;99.90;;;;;;5024027;28;20479;-70
2021/11/10 09:07:20;;;;;;;15.40;12.33;;;13.20;99.90;;;;;;5025275;28;20255;-70
2021/11/10 09:13:11;;;;;;;15.33;13.10;;;14.00;99.90;;;;;;5027689;28;20290;-70
2021/11/10 09:15:43;;;;;;;15.80;12.63;;;14.40;99.90;;;;;;5019384;28;20456;-72
2021/11/10 09:18:10;;;;;;;20.83;13.80;;;14.40;99.90;;;;;;5022237;28;20562;-72
2021/11/10 09:20:38;;;;;;;18.70;14.37;;;14.30;99.90;;;;;;5025090;28;20482;-72
2021/11/10 09:23:17;;;;;;;15.30;12.60;;;14.30;99.90;;;;;;5027689;28;20733;-71
2021/11/10 09:25:48;;;;;;;17.43;13.73;;;14.20;99.90;;;;;;5030549;28;20839;-71
2021/11/10 09:28:28;;;;;;;18.57;13.47;;;14.00;99.90;;;;;;5029928;28;20522;-72
2021/11/10 09:30:55;;;;;;;16.30;13.20;;;13.70;99.90;;;;;;5014501;28;20475;-70
2021/11/10 09:33:22;;;;;;;18.23;14.93;;;13.50;99.90;;;;;;5001337;28;20429;-69
2021/11/10 09:35:49;;;;;;;16.90;12.80;;;13.30;99.90;;;;;;5018073;28;20530;-70
2021/11/10 09:38:15;;;;;;;15.37;13.17;;;13.40;99.90;;;;;;5003475;28;21122;-70
2021/11/10 09:40:43;;;;;;;16.90;14.60;;;13.50;99.90;;;;;;5003019;28;20935;-70
2021/11/10 09:43:10;;;;;;;16.43;13.80;;;13.50;99.90;;;;;;5025260;28;20427;-72
2021/11/10 09:45:36;;;;;;;17.00;13.90;;;13.40;99.90;;;;;;5027224;28;20991;-70
2021/11/10 09:48:17;;;;;;;15.27;12.90;;;13.30;99.90;;;;;;5022952;28;20423;-72
2021/11/10 09:50:53;;;;;;;17.20;13.57;;;13.30;99.90;;;;;;5029399;28;20467;-70
2021/11/10 09:53:23;;;;;;;15.93;13.83;;;13.30;99.90;;;;;;5010169;28;20945;-72
2021/11/10 09:55:51;;;;;;;17.90;13.57;;;13.20;99.90;;;;;;5044160;28;20503;-70
2021/11/10 09:58:17;;;;;;;17.05;14.40;;;13.20;99.90;;;;;;5029625;28;20518;-70
2021/11/10 10:01:02;;;;;;;15.93;13.20;;;13.10;99.90;;;;;;5032278;28;20264;-72
2021/11/10 10:03:31;;;;;;;17.50;13.87;;;13.00;99.90;;;;;;5047618;28;20427;-72
2021/11/10 10:05:58;;;;;;;17.23;13.20;;;13.00;99.90;;;;;;5031976;28;20562;-69
2021/11/10 10:08:25;;;;;;;18.00;13.40;;;13.00;99.90;;;;;;5031897;28;20807;-70
2021/11/10 10:10:54;;;;;;;18.10;13.60;;;13.00;99.90;;;;;;5031895;28;20463;-71
2021/11/10 10:13:20;;;;;;;19.67;13.87;;;12.80;99.90;;;;;;5030537;28;20424;-72
2021/11/10 10:15:49;;;;;;;19.13;14.15;;;12.90;99.90;;;;;;5031993;28;20450;-72
2021/11/10 10:18:25;;;;;;;18.03;13.60;;;12.90;99.90;;;;;;5033217;28;20701;-72
2021/11/10 10:20:53;;;;;;;15.82;13.80;;;13.00;99.90;;;;;;5033727;28;20438;-70
2021/11/10 10:23:27;;;;;;;18.35;14.60;;;12.90;99.90;;;;;;5032656;28;20189;-72
2021/11/10 10:25:58;;;;;;;19.20;14.80;;;12.80;99.90;;;;;;5028345;28;20207;-71
2021/11/10 10:28:28;;;;;;;18.03;14.80;;;12.80;99.90;;;;;;5030934;28;20313;-72
2021/11/10 10:31:11;;;;;;;18.50;14.67;;;12.80;99.90;;;;;;5030181;28;20817;-70
2021/11/10 10:33:49;;;;;;;19.20;14.70;;;12.90;99.90;;;;;;5026529;28;20948;-70
2021/11/10 10:36:22;;;;;;;20.10;15.10;;;13.00;99.90;;;;;;5022985;28;20463;-70
2021/11/10 10:38:57;;;;;;;18.33;14.87;;;13.00;99.90;;;;;;5026508;28;21043;-70
2021/11/10 10:41:38;;;;;;;19.37;14.03;;;13.00;99.90;;;;;;5028136;28;20438;-72
2021/11/10 10:44:15;;;;;;;17.23;14.83;;;13.00;99.90;;;;;;5028136;28;20431;-72
2021/11/10 10:46:44;;;;;;;22.17;15.60;;;13.00;99.90;;;;;;5027486;28;20516;-70
2021/11/10 10:49:49;;;;;;;18.40;14.47;;;12.90;99.90;;;;;;5028735;28;20944;-70
2021/11/10 10:52:18;;;;;;;17.63;14.50;;;13.00;99.90;;;;;;5028155;28;20446;-73
2021/11/10 10:54:47;;;;;;;16.73;13.93;;;13.10;99.90;;;;;;5022731;28;20447;-70
2021/11/10 10:57:22;;;;;;;20.33;14.87;;;13.10;99.90;;;;;;5029082;28;20968;-70
2021/11/10 11:00:14;;;;;;;20.87;16.90;;;13.10;99.90;;;;;;5063380;28;20544;-70
2021/11/10 11:02:40;;;;;;;20.90;16.00;;;13.20;99.90;;;;;;5029303;28;20428;-70
2021/11/10 11:05:07;;;;;;;25.03;17.43;;;13.20;99.90;;;;;;5029638;28;20887;-72
2021/11/10 11:07:36;;;;;;;21.30;15.63;;;13.20;99.90;;;;;;5031671;28;20431;-72
2021/11/10 11:10:06;;;;;;;22.60;17.13;;;13.20;99.90;;;;;;5032969;28;20456;-72
2021/11/10 11:12:38;;;;;;;23.10;17.37;;;13.30;99.90;;;;;;5033029;28;20450;-69
2021/11/10 11:15:37;;;;;;;26.00;18.13;;;13.30;99.90;;;;;;5032316;28;20510;-70
2021/11/10 11:18:04;;;;;;;22.17;17.50;;;13.30;99.90;;;;;;5031246;28;20427;-70
2021/11/10 11:20:37;;;;;;;24.23;17.23;;;13.30;99.90;;;;;;5063139;28;20831;-70
2021/11/10 11:23:09;;;;;;;27.30;16.57;;;13.30;99.90;;;;;;5030624;28;20414;-69
2021/11/10 11:25:40;;;;;;;27.73;18.57;;;13.30;99.90;;;;;;5039685;28;20996;-70
2021/11/10 11:28:09;;;;;;;25.30;17.33;;;13.30;99.90;;;;;;5031724;28;20471;-72
2021/11/10 11:30:51;;;;;;;28.20;19.33;;;13.30;99.90;;;;;;5028435;28;20968;-72
2021/11/10 11:33:21;;;;;;;24.97;18.23;;;13.20;99.90;;;;;;5025456;28;20766;-73
2021/11/10 11:36:02;;;;;;;25.47;18.77;;;13.20;99.90;;;;;;5024982;28;20546;-70
2021/11/10 11:38:32;;;;;;;27.80;18.70;;;13.20;99.90;;;;;;5026913;28;20779;-72
2021/11/10 11:41:23;;;;;;;24.63;18.07;;;13.20;99.90;;;;;;5027757;28;20551;-71
2021/11/10 11:43:50;;;;;;;26.57;19.50;;;13.10;99.90;;;;;;5026680;28;20432;-70
2021/11/10 11:46:19;;;;;;;26.87;20.80;;;13.00;99.90;;;;;;5029179;28;20431;-72
2021/11/10 11:48:45;;;;;;;26.27;19.30;;;13.00;99.90;;;;;;5025144;28;20518;-72
2021/11/10 11:51:13;;;;;;;23.20;18.40;;;13.00;99.90;;;;;;5026361;28;20489;-72
2021/11/10 11:53:42;;;;;;;30.27;20.67;;;13.00;99.90;;;;;;5029463;28;20447;-72
2021/11/10 11:56:10;;;;;;;31.40;20.83;;;13.00;99.90;;;;;;5027947;28;20474;-72
2021/11/10 11:58:42;;;;;;;27.07;18.40;;;13.10;99.90;;;;;;5029828;28;20467;-70
2021/11/10 12:01:15;;;;;;;25.77;18.00;;;13.20;99.90;;;;;;5025748;28;20459;-72
2021/11/10 12:03:52;;;;;;;26.17;18.90;;;13.20;99.90;;;;;;5026375;28;20458;-70
2021/11/10 12:06:25;;;;;;;24.73;17.47;;;13.20;99.90;;;;;;5024680;28;20816;-72
2021/11/10 12:08:53;;;;;;;28.07;19.50;;;13.20;99.90;;;;;;5057213;28;20418;-70
2021/11/10 12:11:33;;;;;;;29.07;17.70;;;13.20;99.90;;;;;;5025407;28;21075;-70
2021/11/10 12:14:05;;;;;;;25.03;18.40;;;13.20;99.90;;;;;;5026948;28;20425;-71
2021/11/10 12:17:07;;;;;;;28.30;19.30;;;13.20;99.90;;;;;;5058811;28;20771;-72
2021/11/10 12:20:01;;;;;;;24.30;18.30;;;13.20;99.90;;;;;;5023899;28;21199;-70
2021/11/10 12:22:34;;;;;;;29.33;19.43;;;13.30;99.90;;;;;;5037454;28;20434;-70
2021/11/10 12:25:03;;;;;;;27.20;19.07;;;13.30;99.90;;;;;;5055629;28;20963;-71
2021/11/10 12:27:32;;;;;;;22.47;17.27;;;13.40;99.90;;;;;;5023102;28;20541;-72
2021/11/10 12:30:06;;;;;;;27.30;19.47;;;13.40;99.90;;;;;;5024850;28;20467;-70
2021/11/10 12:32:36;;;;;;;28.07;19.33;;;13.40;99.90;;;;;;5040764;28;20821;-70
2021/11/10 12:35:06;;;;;;;26.87;18.27;;;13.40;99.90;;;;;;5024335;28;20482;-72
2021/11/10 12:37:41;;;;;;;31.83;21.07;;;13.40;99.90;;;;;;5023860;28;20440;-72
2021/11/10 12:40:28;;;;;;;29.43;19.03;;;13.30;99.90;;;;;;5039310;28;20500;-73
2021/11/10 12:42:59;;;;;;;29.57;20.90;;;13.30;99.90;;;;;;5021394;28;20435;-72
2021/11/10 12:45:28;;;;;;;29.40;19.60;;;13.30;99.90;;;;;;5049569;28;20445;-72
2021/11/10 12:47:58;;;;;;;28.33;20.20;;;13.20;99.90;;;;;;5027726;28;20416;-72